createdAt,value
2022-12-03T00:00:44.723Z,0.97
2022-12-03T00:03:11.403Z,1.01
2022-12-03T00:05:41.739Z,0.90
2022-12-03T00:08:11.312Z,0.82
2022-12-03T00:10:37.953Z,0.84
2022-12-03T00:13:04.449Z,0.85
2022-12-03T00:15:33.940Z,0.91
2022-12-03T00:18:00.467Z,0.90
2022-12-03T00:20:26.809Z,0.87
2022-12-03T00:22:53.354Z,0.83
2022-12-03T00:25:19.745Z,0.84
2022-12-03T00:27:46.126Z,0.86
2022-12-03T00:30:12.519Z,0.84
2022-12-03T00:32:38.922Z,0.86
2022-12-03T00:35:05.280Z,0.90
2022-12-03T00:37:31.769Z,0.93
2022-12-03T00:39:58.123Z,0.92
2022-12-03T00:42:24.502Z,0.96
2022-12-03T00:44:51.337Z,0.97
2022-12-03T00:47:17.950Z,0.96
2022-12-03T00:49:44.333Z,0.93
2022-12-03T00:52:10.712Z,0.90
2022-12-03T00:54:37.067Z,0.85
2022-12-03T00:57:03.882Z,0.82
2022-12-03T00:59:30.321Z,0.81
2022-12-03T01:01:59.007Z,0.73
2022-12-03T01:04:25.812Z,0.72
2022-12-03T01:06:52.178Z,0.74
2022-12-03T01:09:18.572Z,0.80
2022-12-03T01:11:44.917Z,0.83
2022-12-03T01:14:11.361Z,0.91
2022-12-03T01:16:37.800Z,0.95
2022-12-03T01:19:04.279Z,1.02
2022-12-03T01:21:30.649Z,1.09
2022-12-03T01:23:59.188Z,1.13
2022-12-03T01:26:25.682Z,1.19
2022-12-03T01:28:52.111Z,1.24
2022-12-03T01:31:18.862Z,1.32
2022-12-03T01:33:45.227Z,1.35
2022-12-03T01:36:11.911Z,1.42
2022-12-03T01:38:38.371Z,1.44
2022-12-03T01:41:10.068Z,1.45
2022-12-03T01:43:37.944Z,1.44
2022-12-03T01:46:04.386Z,1.45
2022-12-03T01:48:30.809Z,1.46
2022-12-03T01:50:57.231Z,1.46
2022-12-03T01:53:24.643Z,1.52
2022-12-03T01:55:51.078Z,1.59
2022-12-03T01:58:17.465Z,1.54
2022-12-03T02:00:43.904Z,1.55
2022-12-03T02:03:10.449Z,1.58
2022-12-03T02:05:37.154Z,1.51
2022-12-03T02:08:03.617Z,1.46
2022-12-03T02:10:30.190Z,1.26
2022-12-03T02:12:56.616Z,1.33
2022-12-03T02:15:23.034Z,1.31
2022-12-03T02:17:49.455Z,1.35
2022-12-03T02:20:16.197Z,1.30
2022-12-03T02:22:42.683Z,1.35
2022-12-03T02:25:09.020Z,1.40
2022-12-03T02:27:35.470Z,1.49
2022-12-03T02:30:01.816Z,1.56
2022-12-03T02:32:28.138Z,1.61
2022-12-03T02:34:56.715Z,1.64
2022-12-03T02:37:23.096Z,1.69
2022-12-03T02:39:49.661Z,1.73
2022-12-03T02:42:16.058Z,1.73
2022-12-03T02:44:42.609Z,1.77
2022-12-03T02:47:09.008Z,1.81
2022-12-03T02:49:35.877Z,1.64
2022-12-03T02:52:02.525Z,1.65
2022-12-03T02:54:29.060Z,1.62
2022-12-03T02:56:55.447Z,1.57
2022-12-03T02:59:22.199Z,1.56
2022-12-03T03:01:48.668Z,1.33
2022-12-03T03:04:15.080Z,1.25
2022-12-03T03:06:41.675Z,1.30
2022-12-03T03:09:08.024Z,1.34
2022-12-03T03:11:34.495Z,1.31
2022-12-03T03:14:00.837Z,1.30
2022-12-03T03:16:27.359Z,1.39
2022-12-03T03:18:53.915Z,1.51
2022-12-03T03:21:20.392Z,1.58
2022-12-03T03:23:46.791Z,1.63
2022-12-03T03:26:13.174Z,1.69
2022-12-03T03:28:40.564Z,1.76
2022-12-03T03:31:06.945Z,1.83
2022-12-03T03:33:33.289Z,1.85
2022-12-03T03:35:59.647Z,1.86
2022-12-03T03:38:26.040Z,1.87
2022-12-03T03:40:52.621Z,1.88
2022-12-03T03:43:18.966Z,1.89
2022-12-03T03:45:45.462Z,1.92
2022-12-03T03:48:12.286Z,1.94
2022-12-03T03:50:38.848Z,1.91
2022-12-03T03:53:05.280Z,1.90
2022-12-03T03:55:33.976Z,1.90
2022-12-03T03:58:00.357Z,1.94
2022-12-03T04:00:27.039Z,1.92
2022-12-03T04:02:53.449Z,1.84
2022-12-03T04:05:19.938Z,1.87
2022-12-03T04:07:46.586Z,1.90
2022-12-03T04:10:12.954Z,1.93
2022-12-03T04:12:39.342Z,1.96
2022-12-03T04:15:05.674Z,1.96
2022-12-03T04:17:32.106Z,1.90
2022-12-03T04:19:58.586Z,1.90
2022-12-03T04:22:24.982Z,1.85
2022-12-03T04:24:51.691Z,1.85
2022-12-03T04:27:18.424Z,1.84
2022-12-03T04:29:44.831Z,1.84
2022-12-03T04:32:12.225Z,1.68
2022-12-03T04:34:38.627Z,1.53
2022-12-03T04:37:04.959Z,1.54
2022-12-03T04:39:31.396Z,1.53
2022-12-03T04:41:57.744Z,1.47
2022-12-03T04:44:24.085Z,1.35
2022-12-03T04:46:50.560Z,1.38
2022-12-03T04:49:16.964Z,1.26
2022-12-03T04:51:43.303Z,1.26
2022-12-03T04:54:09.718Z,1.35
2022-12-03T04:56:36.056Z,1.40
2022-12-03T04:59:02.443Z,1.48
2022-12-03T05:01:28.898Z,1.51
2022-12-03T05:03:55.330Z,1.50
2022-12-03T05:06:21.882Z,1.48
2022-12-03T05:08:48.226Z,1.39
2022-12-03T05:11:14.774Z,1.31
2022-12-03T05:13:43.017Z,1.28
2022-12-03T05:16:09.813Z,1.21
2022-12-03T05:18:36.347Z,1.25
2022-12-03T05:21:02.739Z,1.25
2022-12-03T05:23:29.128Z,1.26
2022-12-03T05:25:55.476Z,1.29
2022-12-03T05:28:21.819Z,1.31
2022-12-03T05:30:48.256Z,1.33
2022-12-03T05:33:14.718Z,1.11
2022-12-03T05:35:42.130Z,1.08
2022-12-03T05:38:08.513Z,1.11
2022-12-03T05:40:34.871Z,1.21
2022-12-03T05:43:01.245Z,1.28
2022-12-03T05:45:27.659Z,1.35
2022-12-03T05:47:54.060Z,1.41
2022-12-03T05:50:20.440Z,1.44
2022-12-03T05:52:47.022Z,1.47
2022-12-03T05:55:13.404Z,1.52
2022-12-03T05:57:40.947Z,1.50
2022-12-03T06:00:09.769Z,1.43
2022-12-03T06:02:36.553Z,1.35
2022-12-03T06:05:03.030Z,1.40
2022-12-03T06:07:29.471Z,1.43
2022-12-03T06:09:55.825Z,1.38
2022-12-03T06:12:22.532Z,1.42
2022-12-03T06:14:48.860Z,1.45
2022-12-03T06:17:15.631Z,1.48
2022-12-03T06:19:41.974Z,1.52
2022-12-03T06:22:08.345Z,1.55
2022-12-03T06:24:34.723Z,1.56
2022-12-03T06:27:01.199Z,1.56
2022-12-03T06:29:27.639Z,1.57
2022-12-03T06:31:54.012Z,1.59
2022-12-03T06:34:20.464Z,1.60
2022-12-03T06:36:46.809Z,1.62
2022-12-03T06:39:13.317Z,1.65
2022-12-03T06:41:39.666Z,1.65
2022-12-03T06:44:06.165Z,1.64
2022-12-03T06:46:32.714Z,1.64
2022-12-03T06:48:59.094Z,1.64
2022-12-03T06:51:25.585Z,1.65
2022-12-03T06:53:51.956Z,1.66
2022-12-03T06:56:22.086Z,1.64
2022-12-03T06:58:49.290Z,1.64
2022-12-03T07:01:18.128Z,1.66
2022-12-03T07:03:44.622Z,1.65
2022-12-03T07:06:10.967Z,1.70
2022-12-03T07:08:37.304Z,1.72
2022-12-03T07:11:03.751Z,1.78
2022-12-03T07:13:30.136Z,1.78
2022-12-03T07:15:56.628Z,1.79
2022-12-03T07:18:23.053Z,1.83
2022-12-03T07:20:49.434Z,1.79
2022-12-03T07:23:15.813Z,1.79
2022-12-03T07:25:42.202Z,1.79
2022-12-03T07:28:08.593Z,1.83
2022-12-03T07:30:34.951Z,1.88
2022-12-03T07:33:02.325Z,1.90
2022-12-03T07:35:31.059Z,1.87
2022-12-03T07:37:57.519Z,1.88
2022-12-03T07:40:23.859Z,1.91
2022-12-03T07:42:50.196Z,1.94
2022-12-03T07:45:16.575Z,1.97
2022-12-03T07:47:43.068Z,2.00
2022-12-03T07:50:09.437Z,2.03
2022-12-03T07:52:35.833Z,2.03
2022-12-03T07:55:02.643Z,2.02
2022-12-03T07:57:29.018Z,2.02
2022-12-03T07:59:55.369Z,2.08
2022-12-03T08:02:22.100Z,2.13
2022-12-03T08:04:48.584Z,2.15
2022-12-03T08:07:14.946Z,2.21
2022-12-03T08:09:41.289Z,2.22
2022-12-03T08:12:07.759Z,2.26
2022-12-03T08:14:34.240Z,2.25
2022-12-03T08:17:00.609Z,2.26
2022-12-03T08:19:27.057Z,2.28
2022-12-03T08:22:01.050Z,2.30
2022-12-03T08:24:27.880Z,2.34
2022-12-03T08:26:55.259Z,2.40
2022-12-03T08:29:21.697Z,2.37
2022-12-03T08:31:48.187Z,2.23
2022-12-03T08:34:14.613Z,2.27
2022-12-03T08:36:41.392Z,2.33
2022-12-03T08:39:07.777Z,2.36
2022-12-03T08:41:34.216Z,2.41
2022-12-03T08:44:00.674Z,2.48
2022-12-03T08:46:27.228Z,2.48
2022-12-03T08:48:55.212Z,2.55
2022-12-03T08:51:29.350Z,2.59
2022-12-03T08:54:01.240Z,2.30
2022-12-03T08:56:28.379Z,2.05
2022-12-03T08:58:54.818Z,2.15
2022-12-03T09:01:21.274Z,2.25
2022-12-03T09:03:47.803Z,2.36
2022-12-03T09:06:14.226Z,2.44
2022-12-03T09:08:40.983Z,2.52
2022-12-03T09:11:07.326Z,2.01
2022-12-03T09:13:35.775Z,1.66
2022-12-03T09:16:02.210Z,1.81
2022-12-03T09:18:28.966Z,1.88
2022-12-03T09:20:55.333Z,1.97
2022-12-03T09:23:21.718Z,2.05
2022-12-03T09:25:48.216Z,2.17
2022-12-03T09:28:14.618Z,2.30
2022-12-03T09:30:40.958Z,2.04
2022-12-03T09:33:07.300Z,2.09
2022-12-03T09:35:33.636Z,2.19
2022-12-03T09:38:00.128Z,2.28
2022-12-03T09:40:26.747Z,2.36
2022-12-03T09:42:53.281Z,2.41
2022-12-03T09:45:19.763Z,2.46
2022-12-03T09:47:46.188Z,2.49
2022-12-03T09:50:15.654Z,2.54
2022-12-03T09:52:43.020Z,2.53
2022-12-03T09:55:09.394Z,2.59
2022-12-03T09:57:36.153Z,2.56
2022-12-03T10:00:02.658Z,2.37
2022-12-03T10:02:29.311Z,2.39
2022-12-03T10:04:55.979Z,2.28
2022-12-03T10:07:24.921Z,2.25
2022-12-03T10:09:51.696Z,2.33
2022-12-03T10:12:18.220Z,2.38
2022-12-03T10:14:44.812Z,2.00
2022-12-03T10:17:12.266Z,1.96
2022-12-03T10:19:39.212Z,2.00
2022-12-03T10:22:05.554Z,1.93
2022-12-03T10:24:33.014Z,2.08
2022-12-03T10:26:59.488Z,2.08
2022-12-03T10:29:31.628Z,2.14
2022-12-03T10:31:59.940Z,2.26
2022-12-03T10:34:28.021Z,2.36
2022-12-03T10:36:54.578Z,2.47
2022-12-03T10:39:20.925Z,2.58
2022-12-03T10:41:47.331Z,2.53
2022-12-03T10:44:13.777Z,2.65
2022-12-03T10:46:40.714Z,2.71
2022-12-03T10:49:07.453Z,2.76
2022-12-03T10:51:33.796Z,2.82
2022-12-03T10:54:00.346Z,2.90
2022-12-03T10:56:26.857Z,2.90
2022-12-03T10:58:54.848Z,2.96
2022-12-03T11:01:21.563Z,3.08
2022-12-03T11:03:48.090Z,2.85
2022-12-03T11:06:14.655Z,2.66
2022-12-03T11:08:41.201Z,2.40
2022-12-03T11:11:07.539Z,2.50
2022-12-03T11:13:34.389Z,2.58
2022-12-03T11:16:03.213Z,2.71
2022-12-03T11:18:32.605Z,2.84
2022-12-03T11:20:59.029Z,2.80
2022-12-03T11:23:25.628Z,2.64
2022-12-03T11:25:52.092Z,2.74
2022-12-03T11:28:18.496Z,2.86
2022-12-03T11:30:44.919Z,2.96
2022-12-03T11:33:11.327Z,3.06
2022-12-03T11:35:37.755Z,3.12
2022-12-03T11:38:04.226Z,3.21
2022-12-03T11:40:36.132Z,3.28
2022-12-03T11:43:05.644Z,3.16
2022-12-03T11:45:31.998Z,2.97
2022-12-03T11:47:58.424Z,3.11
2022-12-03T11:50:24.786Z,3.09
2022-12-03T11:52:51.331Z,3.00
2022-12-03T11:55:17.788Z,2.98
2022-12-03T11:57:44.156Z,3.05
2022-12-03T12:00:10.897Z,3.11
2022-12-03T12:02:38.418Z,3.05
2022-12-03T12:05:05.058Z,3.07
2022-12-03T12:07:31.875Z,2.96
2022-12-03T12:09:58.570Z,2.81
2022-12-03T12:12:24.990Z,2.63
2022-12-03T12:14:51.355Z,2.72
2022-12-03T12:17:17.818Z,2.86
2022-12-03T12:19:45.074Z,2.99
2022-12-03T12:22:12.113Z,3.00
2022-12-03T12:24:38.541Z,2.96
2022-12-03T12:27:04.945Z,3.06
2022-12-03T12:29:31.367Z,3.15
2022-12-03T12:31:57.776Z,3.12
2022-12-03T12:34:24.248Z,2.99
2022-12-03T12:36:51.085Z,3.01
2022-12-03T12:39:17.587Z,3.08
2022-12-03T12:41:45.034Z,3.10
2022-12-03T12:44:13.595Z,3.05
2022-12-03T12:46:47.812Z,2.83
2022-12-03T12:49:15.462Z,3.10
2022-12-03T12:51:41.875Z,3.14
2022-12-03T12:54:08.540Z,2.88
2022-12-03T12:56:35.027Z,3.00
2022-12-03T12:59:01.660Z,2.94
2022-12-03T13:01:28.364Z,3.03
2022-12-03T13:03:54.852Z,3.12
2022-12-03T13:06:21.256Z,3.16
2022-12-03T13:08:47.767Z,3.27
2022-12-03T13:11:14.675Z,3.25
2022-12-03T13:13:44.071Z,3.17
2022-12-03T13:16:11.963Z,3.12
2022-12-03T13:18:38.361Z,3.18
2022-12-03T13:21:04.703Z,3.23
2022-12-03T13:23:31.309Z,3.22
2022-12-03T13:26:02.268Z,3.30
2022-12-03T13:28:32.965Z,3.33
2022-12-03T13:30:59.559Z,3.36
2022-12-03T13:33:25.960Z,3.37
2022-12-03T13:35:52.397Z,3.38
2022-12-03T13:38:18.856Z,3.43
2022-12-03T13:40:45.233Z,3.36
2022-12-03T13:43:11.601Z,3.40
2022-12-03T13:45:38.043Z,3.45
2022-12-03T13:48:04.468Z,3.44
2022-12-03T13:50:31.841Z,3.47
2022-12-03T13:52:58.231Z,3.43
2022-12-03T13:55:24.635Z,3.07
2022-12-03T13:57:51.146Z,2.87
2022-12-03T14:00:17.498Z,2.70
2022-12-03T14:02:43.888Z,2.75
2022-12-03T14:05:10.407Z,2.87
2022-12-03T14:07:36.830Z,2.95
2022-12-03T14:10:03.292Z,3.06
2022-12-03T14:12:29.649Z,3.12
2022-12-03T14:14:56.038Z,3.14
2022-12-03T14:17:22.394Z,3.15
2022-12-03T14:19:48.988Z,3.11
2022-12-03T14:22:15.340Z,3.14
2022-12-03T14:24:41.683Z,3.25
2022-12-03T14:27:08.068Z,3.26
2022-12-03T14:29:34.416Z,3.23
2022-12-03T14:32:00.975Z,3.18
2022-12-03T14:34:27.354Z,3.19
2022-12-03T14:36:53.707Z,3.18
2022-12-03T14:39:20.543Z,3.26
2022-12-03T14:41:48.918Z,3.21
2022-12-03T14:44:15.307Z,3.13
2022-12-03T14:46:41.712Z,3.16
2022-12-03T14:49:08.345Z,3.23
2022-12-03T14:51:34.751Z,3.26
2022-12-03T14:54:01.093Z,3.28
2022-12-03T14:56:27.437Z,3.36
2022-12-03T14:58:53.820Z,3.32
2022-12-03T15:01:20.199Z,3.34
2022-12-03T15:03:48.694Z,3.26
2022-12-03T15:06:15.046Z,3.13
2022-12-03T15:08:41.383Z,3.16
2022-12-03T15:11:07.942Z,3.23
2022-12-03T15:13:34.332Z,3.28
2022-12-03T15:16:00.723Z,3.26
2022-12-03T15:18:29.681Z,3.24
2022-12-03T15:20:56.205Z,3.25
2022-12-03T15:23:22.733Z,3.23
2022-12-03T15:25:49.277Z,3.14
2022-12-03T15:28:16.659Z,3.17
2022-12-03T15:30:43.042Z,3.12
2022-12-03T15:33:09.681Z,3.15
2022-12-03T15:35:37.570Z,3.19
2022-12-03T15:38:03.937Z,3.08
2022-12-03T15:40:30.424Z,2.97
2022-12-03T15:42:56.774Z,3.07
2022-12-03T15:45:23.169Z,3.07
2022-12-03T15:47:49.518Z,3.11
2022-12-03T15:50:15.883Z,3.13
2022-12-03T15:52:42.266Z,3.11
2022-12-03T15:55:08.955Z,3.10
2022-12-03T15:57:35.297Z,3.07
2022-12-03T16:00:01.645Z,2.85
2022-12-03T16:02:28.077Z,2.94
2022-12-03T16:04:54.523Z,2.99
2022-12-03T16:07:21.181Z,2.98
2022-12-03T16:09:47.984Z,2.95
2022-12-03T16:12:14.433Z,3.02
2022-12-03T16:14:41.915Z,3.02
2022-12-03T16:17:08.508Z,2.97
2022-12-03T16:19:34.957Z,2.86
2022-12-03T16:22:01.751Z,2.91
2022-12-03T16:24:28.578Z,2.85
2022-12-03T16:26:55.012Z,2.76
2022-12-03T16:29:21.396Z,2.83
2022-12-03T16:31:47.761Z,2.74
2022-12-03T16:34:14.417Z,2.80
2022-12-03T16:36:40.915Z,2.85
2022-12-03T16:39:07.287Z,2.81
2022-12-03T16:41:33.764Z,2.81
2022-12-03T16:44:00.374Z,2.83
2022-12-03T16:46:26.963Z,2.86
2022-12-03T16:48:53.386Z,2.88
2022-12-03T16:51:19.893Z,2.56
2022-12-03T16:53:47.421Z,2.67
2022-12-03T16:56:13.771Z,2.72
2022-12-03T16:58:40.252Z,2.74
2022-12-03T17:01:06.869Z,2.70
2022-12-03T17:03:34.232Z,2.63
2022-12-03T17:06:00.694Z,2.70
2022-12-03T17:08:27.364Z,2.74
2022-12-03T17:10:53.775Z,2.79
2022-12-03T17:13:21.463Z,2.77
2022-12-03T17:15:48.051Z,2.78
2022-12-03T17:18:15.056Z,2.85
2022-12-03T17:20:41.610Z,2.89
2022-12-03T17:23:10.946Z,2.92
2022-12-03T17:25:38.097Z,2.99
2022-12-03T17:28:04.513Z,3.02
2022-12-03T17:30:30.845Z,3.04
2022-12-03T17:32:57.217Z,3.06
2022-12-03T17:35:23.638Z,3.04
2022-12-03T17:37:50.048Z,2.97
2022-12-03T17:40:17.217Z,2.99
2022-12-03T17:42:43.855Z,2.81
2022-12-03T17:45:10.233Z,2.90
2022-12-03T17:47:36.615Z,2.95
2022-12-03T17:50:03.171Z,2.92
2022-12-03T17:52:29.611Z,2.99
2022-12-03T17:55:10.480Z,2.98
2022-12-03T17:57:39.448Z,2.95
2022-12-03T18:00:05.926Z,2.98
2022-12-03T18:02:32.415Z,3.06
2022-12-03T18:04:59.120Z,3.03
2022-12-03T18:07:25.627Z,3.03
2022-12-03T18:09:52.296Z,3.00
2022-12-03T18:12:21.394Z,3.06
2022-12-03T18:14:47.795Z,3.07
2022-12-03T18:17:14.505Z,3.08
2022-12-03T18:19:40.961Z,2.99
2022-12-03T18:22:07.365Z,2.79
2022-12-03T18:24:33.702Z,2.80
2022-12-03T18:27:00.169Z,2.82
2022-12-03T18:29:26.737Z,2.82
2022-12-03T18:31:53.182Z,2.84
2022-12-03T18:34:19.697Z,2.78
2022-12-03T18:36:46.105Z,2.77
2022-12-03T18:39:12.488Z,2.71
2022-12-03T18:41:38.856Z,2.71
2022-12-03T18:44:05.396Z,2.72
2022-12-03T18:46:52.421Z,2.61
2022-12-03T18:49:18.372Z,2.69
2022-12-03T18:51:45.811Z,2.66
2022-12-03T18:54:12.588Z,2.66
2022-12-03T18:56:38.977Z,2.56
2022-12-03T18:59:05.683Z,2.49
2022-12-03T19:01:32.120Z,2.60
2022-12-03T19:03:58.698Z,2.59
2022-12-03T19:06:25.604Z,2.61
2022-12-03T19:08:52.210Z,2.64
2022-12-03T19:11:19.197Z,2.62
2022-12-03T19:13:45.849Z,2.69
2022-12-03T19:16:12.231Z,2.74
2022-12-03T19:18:38.918Z,2.63
2022-12-03T19:21:05.319Z,2.69
2022-12-03T19:23:31.675Z,2.75
2022-12-03T19:25:59.338Z,2.74
2022-12-03T19:28:25.822Z,2.76
2022-12-03T19:30:54.483Z,2.85
2022-12-03T19:33:26.743Z,2.83
2022-12-03T19:35:54.731Z,2.86
2022-12-03T19:38:21.407Z,2.84
2022-12-03T19:40:47.860Z,2.88
2022-12-03T19:43:15.242Z,2.80
2022-12-03T19:45:41.622Z,2.83
2022-12-03T19:48:08.434Z,2.71
2022-12-03T19:50:35.995Z,2.75
2022-12-03T20:03:45.249Z,2.75
2022-12-03T20:06:11.835Z,2.84
2022-12-03T20:08:38.291Z,2.85
2022-12-03T20:11:04.652Z,2.85
2022-12-03T20:13:36.339Z,2.79
2022-12-03T20:16:06.064Z,2.82
2022-12-03T20:18:32.680Z,2.71
2022-12-03T20:20:59.067Z,2.76
2022-12-03T20:23:25.458Z,2.71
2022-12-03T20:25:51.876Z,2.70
2022-12-03T20:28:18.349Z,2.76
2022-12-03T20:30:44.704Z,2.81
2022-12-03T20:33:13.702Z,2.87
2022-12-03T20:35:40.066Z,2.80
2022-12-03T20:38:06.561Z,2.70
2022-12-03T20:40:32.937Z,2.71
2022-12-03T20:43:00.668Z,2.78
2022-12-03T20:45:27.108Z,2.57
2022-12-03T20:47:53.608Z,2.54
2022-12-03T20:50:19.999Z,2.64
2022-12-03T20:53:03.569Z,2.70
2022-12-03T20:55:32.923Z,2.67
2022-12-03T20:57:59.296Z,2.66
2022-12-03T21:00:25.660Z,2.70
2022-12-03T21:02:52.478Z,2.78
2022-12-03T21:05:18.867Z,2.73
2022-12-03T21:07:45.593Z,2.78
2022-12-03T21:10:12.053Z,2.73
2022-12-03T21:12:38.532Z,2.71
2022-12-03T21:15:07.347Z,2.71
2022-12-03T21:17:33.867Z,2.73
2022-12-03T21:20:01.238Z,2.76
2022-12-03T21:22:27.674Z,2.74
2022-12-03T21:24:54.033Z,2.83
2022-12-03T21:27:21.962Z,2.91
2022-12-03T21:29:50.990Z,2.86
2022-12-03T21:32:17.633Z,2.71
2022-12-03T21:34:44.003Z,2.74
2022-12-03T21:37:10.388Z,2.78
2022-12-03T21:39:36.843Z,2.83
2022-12-03T21:42:19.222Z,2.92
2022-12-03T21:44:49.777Z,2.92
2022-12-03T21:47:16.192Z,2.94
2022-12-03T21:49:42.573Z,3.00
2022-12-03T21:52:09.067Z,3.05
2022-12-03T21:54:35.445Z,3.06
2022-12-03T21:57:01.827Z,3.01
2022-12-03T21:59:28.255Z,3.00
2022-12-03T22:01:54.643Z,2.90
2022-12-03T22:04:21.051Z,2.89
2022-12-03T22:06:47.503Z,2.84
2022-12-03T22:09:14.906Z,2.89
2022-12-03T22:11:41.389Z,2.88
2022-12-03T22:14:07.882Z,2.95
2022-12-03T22:16:34.431Z,2.87
2022-12-03T22:19:00.854Z,2.89
2022-12-03T22:21:27.229Z,2.81
2022-12-03T22:23:53.686Z,2.76
2022-12-03T22:26:20.047Z,2.82
2022-12-03T22:28:46.426Z,2.89
2022-12-03T22:31:12.890Z,2.91
2022-12-03T22:33:39.381Z,2.95
2022-12-03T22:36:05.807Z,3.02
2022-12-03T22:38:32.183Z,3.06
2022-12-03T22:40:58.568Z,3.12
2022-12-03T22:43:25.052Z,3.17
2022-12-03T22:45:51.473Z,3.18
2022-12-03T22:48:17.864Z,3.20
2022-12-03T22:50:44.206Z,3.20
2022-12-03T22:53:10.657Z,3.22
2022-12-03T22:55:37.416Z,3.26
2022-12-03T22:58:03.877Z,3.26
2022-12-03T23:00:30.270Z,3.30
2022-12-03T23:02:56.777Z,3.35
2022-12-03T23:05:23.402Z,3.27
2022-12-03T23:07:49.802Z,3.30
2022-12-03T23:10:16.244Z,3.24
2022-12-03T23:12:42.731Z,3.21
2022-12-03T23:15:09.133Z,3.21
2022-12-03T23:17:35.498Z,3.12
2022-12-03T23:20:01.854Z,3.13
2022-12-03T23:22:28.230Z,3.08
2022-12-03T23:24:54.615Z,2.95
2022-12-03T23:27:21.007Z,2.78
2022-12-03T23:29:47.801Z,2.74
2022-12-03T23:32:14.155Z,2.84
2022-12-03T23:34:40.557Z,2.90
2022-12-03T23:37:07.138Z,2.97
2022-12-03T23:39:33.916Z,2.97
2022-12-03T23:42:00.436Z,2.91
2022-12-03T23:44:26.822Z,2.95
2022-12-03T23:46:53.266Z,2.99
2022-12-03T23:49:19.719Z,2.86
2022-12-03T23:51:46.126Z,2.72
2022-12-03T23:54:12.512Z,2.74
2022-12-03T23:56:38.861Z,2.82
2022-12-03T23:59:05.305Z,2.88
